Terminal Aerodrome Forecast
Issued by NWS

Home | Current Version | Previous Version | Graphics & Text | Print | Product List | Glossary On
Versions: 1 2 3 4 5 6 7 8 9 10 11 12 13 14 15 16 17 18
000
FTUS43 KGRB 280524
TAFRHI
TAF
KRHI 280524Z 2806/2906 00000KT P6SM FEW005 SCT100
      TEMPO 2808/2812 1SM BR BKN005
     FM281400 06005KT P6SM SKC=

USA.gov is the U.S. government's official web portal to all federal, state and local government web resources and services.